sensor_id;sensor_type;location;lat;lon;timestamp;P1;durP1;ratioP1;P2;durP2;ratioP2
82727;SDS011;72459;50.110;8.750;2024-03-23T00:53:15;17.38;;;10.70;;
82727;SDS011;72459;50.110;8.750;2024-03-23T00:55:41;18.75;;;11.77;;
82727;SDS011;72459;50.110;8.750;2024-03-23T00:58:07;19.67;;;11.70;;
82727;SDS011;72459;50.110;8.750;2024-03-23T01:00:33;20.90;;;12.50;;
82727;SDS011;72459;50.110;8.750;2024-03-23T01:02:58;18.05;;;11.90;;
82727;SDS011;72459;50.110;8.750;2024-03-23T01:05:25;17.55;;;11.25;;
82727;SDS011;72459;50.110;8.750;2024-03-23T01:07:50;19.00;;;11.57;;
82727;SDS011;72459;50.110;8.750;2024-03-23T01:10:15;20.63;;;12.40;;
82727;SDS011;72459;50.110;8.750;2024-03-23T01:12:41;20.02;;;11.38;;
82727;SDS011;72459;50.110;8.750;2024-03-23T01:15:07;19.83;;;11.05;;
82727;SDS011;72459;50.110;8.750;2024-03-23T01:17:32;21.15;;;11.60;;
82727;SDS011;72459;50.110;8.750;2024-03-23T01:19:59;18.65;;;11.00;;
82727;SDS011;72459;50.110;8.750;2024-03-23T01:22:24;21.80;;;11.80;;
82727;SDS011;72459;50.110;8.750;2024-03-23T01:24:50;24.42;;;12.60;;
82727;SDS011;72459;50.110;8.750;2024-03-23T01:27:15;21.58;;;12.38;;
82727;SDS011;72459;50.110;8.750;2024-03-23T01:29:40;20.73;;;11.93;;
82727;SDS011;72459;50.110;8.750;2024-03-23T01:32:06;19.60;;;11.82;;
82727;SDS011;72459;50.110;8.750;2024-03-23T01:34:32;19.35;;;12.43;;
82727;SDS011;72459;50.110;8.750;2024-03-23T01:36:57;20.70;;;12.00;;
82727;SDS011;72459;50.110;8.750;2024-03-23T01:39:22;18.50;;;11.87;;
82727;SDS011;72459;50.110;8.750;2024-03-23T01:41:48;24.27;;;12.52;;
82727;SDS011;72459;50.110;8.750;2024-03-23T01:44:15;18.17;;;12.30;;
82727;SDS011;72459;50.110;8.750;2024-03-23T01:46:42;19.63;;;12.10;;
82727;SDS011;72459;50.110;8.750;2024-03-23T01:49:08;21.48;;;11.88;;
82727;SDS011;72459;50.110;8.750;2024-03-23T01:51:33;19.20;;;11.30;;
82727;SDS011;72459;50.110;8.750;2024-03-23T01:53:59;20.40;;;10.80;;
82727;SDS011;72459;50.110;8.750;2024-03-23T01:56:31;19.50;;;10.43;;
82727;SDS011;72459;50.110;8.750;2024-03-23T01:59:07;20.08;;;11.38;;
82727;SDS011;72459;50.110;8.750;2024-03-23T02:01:34;17.63;;;10.82;;
82727;SDS011;72459;50.110;8.750;2024-03-23T02:04:01;19.77;;;10.95;;
82727;SDS011;72459;50.110;8.750;2024-03-23T02:06:26;17.90;;;10.60;;
82727;SDS011;72459;50.110;8.750;2024-03-23T02:08:52;20.55;;;11.90;;
82727;SDS011;72459;50.110;8.750;2024-03-23T02:11:18;15.98;;;9.52;;
82727;SDS011;72459;50.110;8.750;2024-03-23T02:13:44;18.02;;;10.35;;
82727;SDS011;72459;50.110;8.750;2024-03-23T02:16:09;17.35;;;11.15;;
82727;SDS011;72459;50.110;8.750;2024-03-23T02:18:34;17.63;;;10.50;;
82727;SDS011;72459;50.110;8.750;2024-03-23T02:21:02;17.95;;;11.02;;
82727;SDS011;72459;50.110;8.750;2024-03-23T02:23:27;17.60;;;10.85;;
82727;SDS011;72459;50.110;8.750;2024-03-23T02:25:53;21.17;;;11.38;;
82727;SDS011;72459;50.110;8.750;2024-03-23T02:28:18;20.27;;;10.63;;
82727;SDS011;72459;50.110;8.750;2024-03-23T02:30:44;20.35;;;11.27;;
82727;SDS011;72459;50.110;8.750;2024-03-23T02:33:09;19.23;;;11.27;;
82727;SDS011;72459;50.110;8.750;2024-03-23T02:35:35;18.67;;;10.38;;
82727;SDS011;72459;50.110;8.750;2024-03-23T02:38:00;18.90;;;10.57;;
82727;SDS011;72459;50.110;8.750;2024-03-23T02:40:26;18.92;;;10.45;;
82727;SDS011;72459;50.110;8.750;2024-03-23T02:42:52;20.17;;;10.80;;
82727;SDS011;72459;50.110;8.750;2024-03-23T02:45:18;20.10;;;10.40;;
82727;SDS011;72459;50.110;8.750;2024-03-23T02:47:44;21.42;;;11.98;;
82727;SDS011;72459;50.110;8.750;2024-03-23T02:50:09;18.63;;;10.70;;
82727;SDS011;72459;50.110;8.750;2024-03-23T02:52:35;20.40;;;10.52;;
82727;SDS011;72459;50.110;8.750;2024-03-23T02:55:01;21.45;;;11.00;;
82727;SDS011;72459;50.110;8.750;2024-03-23T02:57:27;19.25;;;11.32;;
82727;SDS011;72459;50.110;8.750;2024-03-23T02:59:53;20.52;;;11.50;;
82727;SDS011;72459;50.110;8.750;2024-03-23T03:02:18;20.40;;;11.73;;
82727;SDS011;72459;50.110;8.750;2024-03-23T03:04:44;22.10;;;10.80;;
82727;SDS011;72459;50.110;8.750;2024-03-23T03:07:10;17.73;;;10.83;;
82727;SDS011;72459;50.110;8.750;2024-03-23T03:09:35;20.10;;;12.10;;
82727;SDS011;72459;50.110;8.750;2024-03-23T03:12:04;22.48;;;12.32;;
82727;SDS011;72459;50.110;8.750;2024-03-23T03:14:32;18.35;;;11.07;;
82727;SDS011;72459;50.110;8.750;2024-03-23T03:16:58;21.77;;;11.55;;
82727;SDS011;72459;50.110;8.750;2024-03-23T03:19:23;18.50;;;11.13;;
82727;SDS011;72459;50.110;8.750;2024-03-23T03:21:49;22.83;;;12.27;;
82727;SDS011;72459;50.110;8.750;2024-03-23T03:24:14;23.33;;;11.93;;
82727;SDS011;72459;50.110;8.750;2024-03-23T03:26:40;23.27;;;11.20;;
82727;SDS011;72459;50.110;8.750;2024-03-23T03:29:05;21.88;;;12.02;;
82727;SDS011;72459;50.110;8.750;2024-03-23T03:31:30;18.20;;;10.63;;
82727;SDS011;72459;50.110;8.750;2024-03-23T03:33:56;22.20;;;11.93;;
82727;SDS011;72459;50.110;8.750;2024-03-23T03:36:21;19.47;;;10.97;;
82727;SDS011;72459;50.110;8.750;2024-03-23T03:38:46;20.48;;;11.85;;
82727;SDS011;72459;50.110;8.750;2024-03-23T03:41:12;22.50;;;11.75;;
82727;SDS011;72459;50.110;8.750;2024-03-23T03:43:37;22.15;;;11.63;;
82727;SDS011;72459;50.110;8.750;2024-03-23T03:46:03;22.90;;;11.40;;
82727;SDS011;72459;50.110;8.750;2024-03-23T03:48:29;22.00;;;11.73;;
82727;SDS011;72459;50.110;8.750;2024-03-23T03:50:54;21.02;;;11.50;;
82727;SDS011;72459;50.110;8.750;2024-03-23T03:53:19;22.17;;;11.65;;
82727;SDS011;72459;50.110;8.750;2024-03-23T03:55:45;21.48;;;11.40;;
82727;SDS011;72459;50.110;8.750;2024-03-23T03:58:10;22.52;;;11.70;;
82727;SDS011;72459;50.110;8.750;2024-03-23T04:00:36;22.27;;;10.82;;
82727;SDS011;72459;50.110;8.750;2024-03-23T04:03:01;18.73;;;10.32;;
82727;SDS011;72459;50.110;8.750;2024-03-23T04:05:27;18.73;;;10.13;;
82727;SDS011;72459;50.110;8.750;2024-03-23T04:07:53;21.88;;;10.98;;
82727;SDS011;72459;50.110;8.750;2024-03-23T04:10:19;21.23;;;11.20;;
82727;SDS011;72459;50.110;8.750;2024-03-23T04:12:45;21.02;;;10.40;;
82727;SDS011;72459;50.110;8.750;2024-03-23T04:15:10;19.83;;;10.43;;
82727;SDS011;72459;50.110;8.750;2024-03-23T04:17:36;22.60;;;10.50;;
82727;SDS011;72459;50.110;8.750;2024-03-23T04:20:02;20.40;;;10.65;;
82727;SDS011;72459;50.110;8.750;2024-03-23T04:22:30;23.00;;;12.27;;
82727;SDS011;72459;50.110;8.750;2024-03-23T04:24:56;20.13;;;11.82;;
82727;SDS011;72459;50.110;8.750;2024-03-23T04:27:22;20.65;;;11.07;;
82727;SDS011;72459;50.110;8.750;2024-03-23T04:29:51;18.55;;;9.55;;
82727;SDS011;72459;50.110;8.750;2024-03-23T04:32:21;15.95;;;7.82;;
82727;SDS011;72459;50.110;8.750;2024-03-23T04:34:46;12.23;;;5.80;;
82727;SDS011;72459;50.110;8.750;2024-03-23T04:37:11;10.25;;;5.38;;
82727;SDS011;72459;50.110;8.750;2024-03-23T04:39:37;9.15;;;4.38;;
82727;SDS011;72459;50.110;8.750;2024-03-23T04:42:03;7.18;;;3.63;;
82727;SDS011;72459;50.110;8.750;2024-03-23T04:44:28;4.90;;;2.67;;
82727;SDS011;72459;50.110;8.750;2024-03-23T04:46:54;4.60;;;2.70;;
82727;SDS011;72459;50.110;8.750;2024-03-23T04:49:20;4.03;;;2.17;;
82727;SDS011;72459;50.110;8.750;2024-03-23T04:51:45;3.90;;;1.95;;
82727;SDS011;72459;50.110;8.750;2024-03-23T04:54:14;3.53;;;1.70;;
82727;SDS011;72459;50.110;8.750;2024-03-23T04:56:40;4.18;;;2.15;;
82727;SDS011;72459;50.110;8.750;2024-03-23T04:59:05;2.78;;;1.33;;
82727;SDS011;72459;50.110;8.750;2024-03-23T05:01:31;2.13;;;0.98;;
82727;SDS011;72459;50.110;8.750;2024-03-23T05:03:57;1.75;;;0.95;;
82727;SDS011;72459;50.110;8.750;2024-03-23T05:06:23;3.05;;;0.60;;
82727;SDS011;72459;50.110;8.750;2024-03-23T05:08:49;0.98;;;0.50;;
82727;SDS011;72459;50.110;8.750;2024-03-23T05:11:14;1.17;;;0.40;;
82727;SDS011;72459;50.110;8.750;2024-03-23T05:13:40;0.60;;;0.30;;
82727;SDS011;72459;50.110;8.750;2024-03-23T05:16:06;0.80;;;0.40;;
82727;SDS011;72459;50.110;8.750;2024-03-23T05:18:31;0.40;;;0.20;;
82727;SDS011;72459;50.110;8.750;2024-03-23T05:20:57;0.80;;;0.30;;
82727;SDS011;72459;50.110;8.750;2024-03-23T05:23:23;0.57;;;0.25;;
82727;SDS011;72459;50.110;8.750;2024-03-23T05:25:49;0.60;;;0.30;;
82727;SDS011;72459;50.110;8.750;2024-03-23T05:28:14;0.47;;;0.40;;
82727;SDS011;72459;50.110;8.750;2024-03-23T05:30:40;1.40;;;0.30;;
82727;SDS011;72459;50.110;8.750;2024-03-23T05:33:05;0.50;;;0.20;;
82727;SDS011;72459;50.110;8.750;2024-03-23T05:35:31;0.70;;;0.30;;
82727;SDS011;72459;50.110;8.750;2024-03-23T05:37:57;0.50;;;0.38;;
82727;SDS011;72459;50.110;8.750;2024-03-23T05:40:23;1.60;;;0.52;;
82727;SDS011;72459;50.110;8.750;2024-03-23T05:42:50;1.42;;;0.65;;
82727;SDS011;72459;50.110;8.750;2024-03-23T05:45:18;1.05;;;0.52;;
82727;SDS011;72459;50.110;8.750;2024-03-23T05:47:44;1.20;;;0.40;;
82727;SDS011;72459;50.110;8.750;2024-03-23T05:50:09;0.80;;;0.50;;
82727;SDS011;72459;50.110;8.750;2024-03-23T05:52:37;1.15;;;0.52;;
82727;SDS011;72459;50.110;8.750;2024-03-23T05:55:03;1.67;;;0.60;;
82727;SDS011;72459;50.110;8.750;2024-03-23T05:57:29;2.03;;;0.50;;
82727;SDS011;72459;50.110;8.750;2024-03-23T05:59:54;0.57;;;0.40;;
82727;SDS011;72459;50.110;8.750;2024-03-23T06:02:20;1.35;;;0.77;;
82727;SDS011;72459;50.110;8.750;2024-03-23T06:04:45;1.37;;;0.53;;
82727;SDS011;72459;50.110;8.750;2024-03-23T06:07:11;1.55;;;0.60;;
82727;SDS011;72459;50.110;8.750;2024-03-23T06:12:05;1.80;;;0.60;;
82727;SDS011;72459;50.110;8.750;2024-03-23T06:14:31;1.02;;;0.40;;
82727;SDS011;72459;50.110;8.750;2024-03-23T06:16:57;1.08;;;0.55;;
82727;SDS011;72459;50.110;8.750;2024-03-23T06:19:23;2.10;;;0.32;;
82727;SDS011;72459;50.110;8.750;2024-03-23T06:21:48;0.80;;;0.30;;
82727;SDS011;72459;50.110;8.750;2024-03-23T06:24:13;0.20;;;0.10;;
82727;SDS011;72459;50.110;8.750;2024-03-23T06:26:39;0.17;;;0.17;;
82727;SDS011;72459;50.110;8.750;2024-03-23T06:29:04;1.30;;;0.00;;
82727;SDS011;72459;50.110;8.750;2024-03-23T06:31:31;0.43;;;0.20;;
82727;SDS011;72459;50.110;8.750;2024-03-23T06:33:57;0.65;;;0.20;;
82727;SDS011;72459;50.110;8.750;2024-03-23T06:36:22;0.50;;;0.20;;
82727;SDS011;72459;50.110;8.750;2024-03-23T06:38:47;0.05;;;0.03;;
82727;SDS011;72459;50.110;8.750;2024-03-23T06:41:13;0.20;;;0.10;;
82727;SDS011;72459;50.110;8.750;2024-03-23T06:43:38;0.50;;;0.10;;
82727;SDS011;72459;50.110;8.750;2024-03-23T06:46:04;0.10;;;0.00;;
82727;SDS011;72459;50.110;8.750;2024-03-23T06:48:30;0.75;;;0.20;;
82727;SDS011;72459;50.110;8.750;2024-03-23T06:50:56;0.52;;;0.10;;
82727;SDS011;72459;50.110;8.750;2024-03-23T06:53:22;0.32;;;0.15;;
82727;SDS011;72459;50.110;8.750;2024-03-23T06:55:51;0.22;;;0.03;;
82727;SDS011;72459;50.110;8.750;2024-03-23T06:58:18;0.20;;;0.10;;
82727;SDS011;72459;50.110;8.750;2024-03-23T07:00:44;0.95;;;0.20;;
82727;SDS011;72459;50.110;8.750;2024-03-23T07:03:09;0.07;;;0.03;;
82727;SDS011;72459;50.110;8.750;2024-03-23T07:05:35;0.07;;;0.00;;
82727;SDS011;72459;50.110;8.750;2024-03-23T07:08:00;0.40;;;0.10;;
82727;SDS011;72459;50.110;8.750;2024-03-23T07:10:26;0.20;;;0.10;;
82727;SDS011;72459;50.110;8.750;2024-03-23T07:12:52;0.22;;;0.10;;
82727;SDS011;72459;50.110;8.750;2024-03-23T07:15:17;0.25;;;0.08;;
82727;SDS011;72459;50.110;8.750;2024-03-23T07:17:42;0.73;;;0.30;;
82727;SDS011;72459;50.110;8.750;2024-03-23T07:20:11;1.52;;;0.38;;
82727;SDS011;72459;50.110;8.750;2024-03-23T07:22:38;0.90;;;0.30;;
82727;SDS011;72459;50.110;8.750;2024-03-23T07:25:04;1.45;;;0.52;;
82727;SDS011;72459;50.110;8.750;2024-03-23T07:27:31;1.00;;;0.52;;
82727;SDS011;72459;50.110;8.750;2024-03-23T07:29:56;0.63;;;0.20;;
82727;SDS011;72459;50.110;8.750;2024-03-23T07:32:21;2.87;;;0.40;;
82727;SDS011;72459;50.110;8.750;2024-03-23T07:34:47;0.80;;;0.30;;
82727;SDS011;72459;50.110;8.750;2024-03-23T07:37:12;1.07;;;0.40;;
82727;SDS011;72459;50.110;8.750;2024-03-23T07:39:39;3.88;;;0.57;;
82727;SDS011;72459;50.110;8.750;2024-03-23T07:42:04;1.95;;;0.35;;
82727;SDS011;72459;50.110;8.750;2024-03-23T07:44:30;1.30;;;0.35;;
82727;SDS011;72459;50.110;8.750;2024-03-23T07:46:56;1.80;;;0.40;;
82727;SDS011;72459;50.110;8.750;2024-03-23T07:49:21;2.67;;;0.60;;
82727;SDS011;72459;50.110;8.750;2024-03-23T07:51:47;3.55;;;0.50;;
82727;SDS011;72459;50.110;8.750;2024-03-23T07:54:12;2.83;;;0.90;;
82727;SDS011;72459;50.110;8.750;2024-03-23T07:56:38;1.02;;;0.60;;
82727;SDS011;72459;50.110;8.750;2024-03-23T07:59:04;3.75;;;0.70;;
82727;SDS011;72459;50.110;8.750;2024-03-23T08:01:29;2.78;;;0.60;;
82727;SDS011;72459;50.110;8.750;2024-03-23T08:03:55;2.08;;;0.40;;
82727;SDS011;72459;50.110;8.750;2024-03-23T08:06:20;2.70;;;0.65;;
82727;SDS011;72459;50.110;8.750;2024-03-23T08:08:56;4.03;;;0.80;;
82727;SDS011;72459;50.110;8.750;2024-03-23T08:11:26;5.15;;;1.10;;
82727;SDS011;72459;50.110;8.750;2024-03-23T08:13:52;5.93;;;1.40;;
82727;SDS011;72459;50.110;8.750;2024-03-23T08:16:18;4.60;;;1.05;;
82727;SDS011;72459;50.110;8.750;2024-03-23T08:18:44;3.05;;;1.20;;
82727;SDS011;72459;50.110;8.750;2024-03-23T08:21:09;4.82;;;1.30;;
82727;SDS011;72459;50.110;8.750;2024-03-23T08:23:35;7.25;;;1.65;;
82727;SDS011;72459;50.110;8.750;2024-03-23T08:26:04;6.15;;;1.63;;
82727;SDS011;72459;50.110;8.750;2024-03-23T08:28:31;5.35;;;2.00;;
82727;SDS011;72459;50.110;8.750;2024-03-23T08:30:57;4.25;;;2.10;;
82727;SDS011;72459;50.110;8.750;2024-03-23T08:33:25;4.93;;;2.30;;
82727;SDS011;72459;50.110;8.750;2024-03-23T08:38:24;6.07;;;2.22;;
82727;SDS011;72459;50.110;8.750;2024-03-23T08:41:00;7.05;;;2.70;;
82727;SDS011;72459;50.110;8.750;2024-03-23T08:43:27;7.50;;;2.65;;
82727;SDS011;72459;50.110;8.750;2024-03-23T08:45:54;7.32;;;2.45;;
82727;SDS011;72459;50.110;8.750;2024-03-23T08:48:34;5.90;;;2.33;;
82727;SDS011;72459;50.110;8.750;2024-03-23T08:51:01;6.47;;;2.45;;
82727;SDS011;72459;50.110;8.750;2024-03-23T08:53:30;4.07;;;1.92;;
82727;SDS011;72459;50.110;8.750;2024-03-23T08:55:56;5.07;;;2.47;;
82727;SDS011;72459;50.110;8.750;2024-03-23T08:58:23;4.13;;;2.10;;
82727;SDS011;72459;50.110;8.750;2024-03-23T09:00:49;5.13;;;2.53;;
82727;SDS011;72459;50.110;8.750;2024-03-23T09:03:18;6.40;;;2.45;;
82727;SDS011;72459;50.110;8.750;2024-03-23T09:05:43;7.75;;;2.42;;
82727;SDS011;72459;50.110;8.750;2024-03-23T09:08:09;4.53;;;2.05;;
82727;SDS011;72459;50.110;8.750;2024-03-23T09:10:40;5.15;;;1.83;;
82727;SDS011;72459;50.110;8.750;2024-03-23T09:13:07;4.38;;;1.90;;
82727;SDS011;72459;50.110;8.750;2024-03-23T09:15:36;4.90;;;1.98;;
82727;SDS011;72459;50.110;8.750;2024-03-23T09:18:03;4.47;;;2.03;;
82727;SDS011;72459;50.110;8.750;2024-03-23T09:20:29;4.78;;;1.75;;
82727;SDS011;72459;50.110;8.750;2024-03-23T09:22:58;5.28;;;1.77;;
82727;SDS011;72459;50.110;8.750;2024-03-23T09:25:24;6.63;;;1.98;;
82727;SDS011;72459;50.110;8.750;2024-03-23T09:27:50;6.63;;;2.30;;
82727;SDS011;72459;50.110;8.750;2024-03-23T09:30:15;4.97;;;1.85;;
82727;SDS011;72459;50.110;8.750;2024-03-23T09:32:42;6.28;;;2.15;;
82727;SDS011;72459;50.110;8.750;2024-03-23T09:35:08;5.13;;;1.63;;
82727;SDS011;72459;50.110;8.750;2024-03-23T09:37:34;4.90;;;1.80;;
82727;SDS011;72459;50.110;8.750;2024-03-23T09:39:59;4.60;;;1.50;;
82727;SDS011;72459;50.110;8.750;2024-03-23T09:42:24;3.77;;;1.60;;
82727;SDS011;72459;50.110;8.750;2024-03-23T09:44:50;5.40;;;1.83;;
82727;SDS011;72459;50.110;8.750;2024-03-23T09:47:17;7.28;;;1.77;;
82727;SDS011;72459;50.110;8.750;2024-03-23T09:49:43;7.82;;;1.80;;
82727;SDS011;72459;50.110;8.750;2024-03-23T09:52:08;7.00;;;1.75;;
82727;SDS011;72459;50.110;8.750;2024-03-23T09:54:34;4.70;;;1.75;;
82727;SDS011;72459;50.110;8.750;2024-03-23T09:57:00;3.80;;;1.52;;
82727;SDS011;72459;50.110;8.750;2024-03-23T09:59:25;8.73;;;1.60;;
82727;SDS011;72459;50.110;8.750;2024-03-23T10:01:52;6.57;;;1.98;;
82727;SDS011;72459;50.110;8.750;2024-03-23T10:07:19;7.10;;;1.88;;
82727;SDS011;72459;50.110;8.750;2024-03-23T10:09:45;3.55;;;1.65;;
82727;SDS011;72459;50.110;8.750;2024-03-23T10:12:18;4.38;;;1.63;;
82727;SDS011;72459;50.110;8.750;2024-03-23T10:14:44;6.35;;;1.77;;
82727;SDS011;72459;50.110;8.750;2024-03-23T10:17:17;5.00;;;1.88;;
82727;SDS011;72459;50.110;8.750;2024-03-23T10:19:47;5.35;;;1.52;;
82727;SDS011;72459;50.110;8.750;2024-03-23T10:24:47;4.93;;;1.35;;
82727;SDS011;72459;50.110;8.750;2024-03-23T10:27:17;5.45;;;1.48;;
82727;SDS011;72459;50.110;8.750;2024-03-23T10:29:44;3.90;;;1.23;;
82727;SDS011;72459;50.110;8.750;2024-03-23T10:32:11;3.47;;;1.15;;
82727;SDS011;72459;50.110;8.750;2024-03-23T10:34:37;2.60;;;1.15;;
82727;SDS011;72459;50.110;8.750;2024-03-23T10:37:03;5.03;;;0.80;;
82727;SDS011;72459;50.110;8.750;2024-03-23T10:39:35;5.10;;;1.38;;
82727;SDS011;72459;50.110;8.750;2024-03-23T10:42:04;3.55;;;0.90;;
82727;SDS011;72459;50.110;8.750;2024-03-23T10:44:31;3.97;;;1.02;;
82727;SDS011;72459;50.110;8.750;2024-03-23T10:46:57;4.35;;;1.10;;
82727;SDS011;72459;50.110;8.750;2024-03-23T10:49:30;3.60;;;0.93;;
82727;SDS011;72459;50.110;8.750;2024-03-23T10:51:58;5.82;;;1.08;;
82727;SDS011;72459;50.110;8.750;2024-03-23T10:54:24;4.32;;;1.40;;
82727;SDS011;72459;50.110;8.750;2024-03-23T10:56:56;3.03;;;0.85;;
82727;SDS011;72459;50.110;8.750;2024-03-23T10:59:27;3.22;;;0.90;;
82727;SDS011;72459;50.110;8.750;2024-03-23T11:01:57;6.90;;;1.30;;
82727;SDS011;72459;50.110;8.750;2024-03-23T11:04:32;6.53;;;1.30;;
82727;SDS011;72459;50.110;8.750;2024-03-23T11:07:01;4.18;;;1.23;;
82727;SDS011;72459;50.110;8.750;2024-03-23T11:12:24;2.10;;;0.77;;
82727;SDS011;72459;50.110;8.750;2024-03-23T11:17:31;5.15;;;0.95;;
82727;SDS011;72459;50.110;8.750;2024-03-23T11:20:00;4.65;;;1.10;;
82727;SDS011;72459;50.110;8.750;2024-03-23T11:22:45;3.05;;;0.85;;
82727;SDS011;72459;50.110;8.750;2024-03-23T11:25:18;4.15;;;0.68;;
82727;SDS011;72459;50.110;8.750;2024-03-23T11:27:54;2.13;;;0.60;;
82727;SDS011;72459;50.110;8.750;2024-03-23T11:30:25;2.42;;;0.43;;
82727;SDS011;72459;50.110;8.750;2024-03-23T11:32:55;3.42;;;0.80;;
82727;SDS011;72459;50.110;8.750;2024-03-23T11:35:28;4.18;;;0.98;;
82727;SDS011;72459;50.110;8.750;2024-03-23T11:38:17;2.33;;;0.82;;
82727;SDS011;72459;50.110;8.750;2024-03-23T11:40:50;3.60;;;0.50;;
82727;SDS011;72459;50.110;8.750;2024-03-23T11:43:16;3.90;;;0.70;;
82727;SDS011;72459;50.110;8.750;2024-03-23T11:45:52;3.38;;;0.70;;
82727;SDS011;72459;50.110;8.750;2024-03-23T11:48:19;5.80;;;0.88;;
82727;SDS011;72459;50.110;8.750;2024-03-23T11:50:49;4.00;;;1.13;;
82727;SDS011;72459;50.110;8.750;2024-03-23T11:53:22;2.33;;;0.60;;
82727;SDS011;72459;50.110;8.750;2024-03-23T11:55:49;3.80;;;0.90;;
82727;SDS011;72459;50.110;8.750;2024-03-23T11:58:15;4.97;;;1.00;;
82727;SDS011;72459;50.110;8.750;2024-03-23T12:00:49;5.38;;;1.15;;
82727;SDS011;72459;50.110;8.750;2024-03-23T12:03:24;2.13;;;0.95;;
82727;SDS011;72459;50.110;8.750;2024-03-23T12:05:52;3.03;;;1.10;;
82727;SDS011;72459;50.110;8.750;2024-03-23T12:08:23;3.70;;;1.25;;
82727;SDS011;72459;50.110;8.750;2024-03-23T12:10:53;3.50;;;0.95;;
82727;SDS011;72459;50.110;8.750;2024-03-23T12:13:33;6.00;;;1.10;;
82727;SDS011;72459;50.110;8.750;2024-03-23T12:18:41;4.32;;;1.10;;
82727;SDS011;72459;50.110;8.750;2024-03-23T12:21:08;5.63;;;1.23;;
82727;SDS011;72459;50.110;8.750;2024-03-23T12:23:34;5.32;;;1.08;;
82727;SDS011;72459;50.110;8.750;2024-03-23T12:26:00;4.50;;;1.17;;
82727;SDS011;72459;50.110;8.750;2024-03-23T12:28:26;6.18;;;1.30;;
82727;SDS011;72459;50.110;8.750;2024-03-23T12:30:53;5.22;;;1.00;;
82727;SDS011;72459;50.110;8.750;2024-03-23T12:33:19;2.28;;;0.88;;
82727;SDS011;72459;50.110;8.750;2024-03-23T12:35:44;5.53;;;1.40;;
82727;SDS011;72459;50.110;8.750;2024-03-23T12:38:10;3.47;;;1.13;;
82727;SDS011;72459;50.110;8.750;2024-03-23T12:40:35;3.13;;;0.90;;
82727;SDS011;72459;50.110;8.750;2024-03-23T12:43:01;3.17;;;1.08;;
82727;SDS011;72459;50.110;8.750;2024-03-23T12:45:26;4.37;;;1.20;;
82727;SDS011;72459;50.110;8.750;2024-03-23T12:47:51;5.00;;;1.23;;
82727;SDS011;72459;50.110;8.750;2024-03-23T12:50:20;3.92;;;1.20;;
82727;SDS011;72459;50.110;8.750;2024-03-23T12:52:45;4.20;;;1.23;;
82727;SDS011;72459;50.110;8.750;2024-03-23T12:55:10;3.28;;;1.00;;
82727;SDS011;72459;50.110;8.750;2024-03-23T12:57:36;3.22;;;0.93;;
82727;SDS011;72459;50.110;8.750;2024-03-23T13:00:02;4.57;;;1.73;;
82727;SDS011;72459;50.110;8.750;2024-03-23T13:02:29;5.00;;;1.50;;
82727;SDS011;72459;50.110;8.750;2024-03-23T13:04:54;2.55;;;1.13;;
82727;SDS011;72459;50.110;8.750;2024-03-23T13:07:20;5.07;;;1.42;;
82727;SDS011;72459;50.110;8.750;2024-03-23T13:09:46;4.85;;;1.30;;
82727;SDS011;72459;50.110;8.750;2024-03-23T13:12:12;4.40;;;1.33;;
82727;SDS011;72459;50.110;8.750;2024-03-23T13:14:37;4.15;;;1.30;;
82727;SDS011;72459;50.110;8.750;2024-03-23T13:17:03;3.75;;;1.15;;
82727;SDS011;72459;50.110;8.750;2024-03-23T13:19:29;2.97;;;1.20;;
82727;SDS011;72459;50.110;8.750;2024-03-23T13:21:59;2.67;;;1.00;;
82727;SDS011;72459;50.110;8.750;2024-03-23T13:24:25;5.07;;;1.05;;
82727;SDS011;72459;50.110;8.750;2024-03-23T13:26:52;8.10;;;0.82;;
82727;SDS011;72459;50.110;8.750;2024-03-23T13:29:18;1.77;;;0.40;;
82727;SDS011;72459;50.110;8.750;2024-03-23T13:31:44;1.25;;;0.50;;
82727;SDS011;72459;50.110;8.750;2024-03-23T13:34:10;1.15;;;0.30;;
82727;SDS011;72459;50.110;8.750;2024-03-23T13:36:36;2.00;;;0.65;;
82727;SDS011;72459;50.110;8.750;2024-03-23T13:39:04;0.90;;;0.60;;
82727;SDS011;72459;50.110;8.750;2024-03-23T13:41:35;1.65;;;0.40;;
82727;SDS011;72459;50.110;8.750;2024-03-23T13:44:02;1.50;;;0.30;;
82727;SDS011;72459;50.110;8.750;2024-03-23T13:46:28;2.17;;;0.30;;
82727;SDS011;72459;50.110;8.750;2024-03-23T13:48:53;1.47;;;0.40;;
82727;SDS011;72459;50.110;8.750;2024-03-23T13:51:22;1.97;;;0.40;;
82727;SDS011;72459;50.110;8.750;2024-03-23T13:53:49;1.08;;;0.30;;
82727;SDS011;72459;50.110;8.750;2024-03-23T13:56:14;0.93;;;0.20;;
82727;SDS011;72459;50.110;8.750;2024-03-23T13:58:39;1.23;;;0.37;;
82727;SDS011;72459;50.110;8.750;2024-03-23T14:01:10;0.75;;;0.32;;
82727;SDS011;72459;50.110;8.750;2024-03-23T14:03:36;0.93;;;0.30;;
82727;SDS011;72459;50.110;8.750;2024-03-23T14:06:03;2.75;;;0.60;;
82727;SDS011;72459;50.110;8.750;2024-03-23T14:08:29;1.35;;;0.30;;
82727;SDS011;72459;50.110;8.750;2024-03-23T14:10:57;1.30;;;0.30;;
82727;SDS011;72459;50.110;8.750;2024-03-23T14:13:22;0.85;;;0.25;;
82727;SDS011;72459;50.110;8.750;2024-03-23T14:15:52;1.60;;;0.77;;
82727;SDS011;72459;50.110;8.750;2024-03-23T14:18:18;1.52;;;0.50;;
82727;SDS011;72459;50.110;8.750;2024-03-23T14:20:43;1.60;;;0.63;;
82727;SDS011;72459;50.110;8.750;2024-03-23T14:23:10;1.77;;;0.45;;
82727;SDS011;72459;50.110;8.750;2024-03-23T14:25:35;2.17;;;0.50;;
82727;SDS011;72459;50.110;8.750;2024-03-23T14:28:00;0.80;;;0.40;;
82727;SDS011;72459;50.110;8.750;2024-03-23T14:30:26;1.50;;;0.60;;
82727;SDS011;72459;50.110;8.750;2024-03-23T14:32:51;1.38;;;0.70;;
82727;SDS011;72459;50.110;8.750;2024-03-23T14:35:16;1.20;;;0.40;;
82727;SDS011;72459;50.110;8.750;2024-03-23T14:37:42;1.20;;;0.40;;
82727;SDS011;72459;50.110;8.750;2024-03-23T14:40:08;0.80;;;0.47;;
82727;SDS011;72459;50.110;8.750;2024-03-23T14:42:37;0.90;;;0.30;;
82727;SDS011;72459;50.110;8.750;2024-03-23T14:45:04;1.60;;;0.60;;
82727;SDS011;72459;50.110;8.750;2024-03-23T14:47:30;1.00;;;0.32;;
82727;SDS011;72459;50.110;8.750;2024-03-23T14:49:56;1.45;;;0.40;;
82727;SDS011;72459;50.110;8.750;2024-03-23T14:52:23;1.05;;;0.20;;
82727;SDS011;72459;50.110;8.750;2024-03-23T14:54:49;1.88;;;0.32;;
82727;SDS011;72459;50.110;8.750;2024-03-23T14:57:14;1.17;;;0.32;;
82727;SDS011;72459;50.110;8.750;2024-03-23T14:59:40;1.15;;;0.32;;
82727;SDS011;72459;50.110;8.750;2024-03-23T15:02:06;1.88;;;0.30;;
82727;SDS011;72459;50.110;8.750;2024-03-23T15:04:32;1.92;;;0.30;;
82727;SDS011;72459;50.110;8.750;2024-03-23T15:06:58;0.93;;;0.50;;
82727;SDS011;72459;50.110;8.750;2024-03-23T15:09:25;1.23;;;0.80;;
82727;SDS011;72459;50.110;8.750;2024-03-23T15:11:50;2.22;;;0.60;;
82727;SDS011;72459;50.110;8.750;2024-03-23T15:14:15;1.67;;;0.60;;
82727;SDS011;72459;50.110;8.750;2024-03-23T15:16:41;2.65;;;0.52;;
82727;SDS011;72459;50.110;8.750;2024-03-23T15:19:07;1.70;;;0.40;;
82727;SDS011;72459;50.110;8.750;2024-03-23T15:21:33;1.40;;;0.50;;
82727;SDS011;72459;50.110;8.750;2024-03-23T15:23:58;2.78;;;0.50;;
82727;SDS011;72459;50.110;8.750;2024-03-23T15:26:24;1.58;;;0.60;;
82727;SDS011;72459;50.110;8.750;2024-03-23T15:28:49;2.87;;;0.60;;
82727;SDS011;72459;50.110;8.750;2024-03-23T15:31:24;1.02;;;0.50;;
82727;SDS011;72459;50.110;8.750;2024-03-23T15:33:49;1.10;;;0.47;;
82727;SDS011;72459;50.110;8.750;2024-03-23T15:36:15;1.20;;;0.52;;
82727;SDS011;72459;50.110;8.750;2024-03-23T15:38:40;1.73;;;0.60;;
82727;SDS011;72459;50.110;8.750;2024-03-23T15:41:06;1.60;;;0.70;;
82727;SDS011;72459;50.110;8.750;2024-03-23T15:43:32;2.42;;;0.98;;
82727;SDS011;72459;50.110;8.750;2024-03-23T15:45:58;1.90;;;0.77;;
82727;SDS011;72459;50.110;8.750;2024-03-23T15:48:25;1.08;;;0.50;;